sensor_id;sensor_type;location;lat;lon;timestamp;pressure;altitude;pressure_sealevel;temperature;humidity
12973;BME280;6551;51.056;9.466;2022-08-16T00:00:18;96857.47;;;25.71;52.31
12973;BME280;6551;51.056;9.466;2022-08-16T00:02:45;96847.31;;;25.39;52.81
12973;BME280;6551;51.056;9.466;2022-08-16T00:05:12;96850.97;;;25.22;53.03
12973;BME280;6551;51.056;9.466;2022-08-16T00:07:39;96848.06;;;25.27;52.93
12973;BME280;6551;51.056;9.466;2022-08-16T00:10:09;96851.84;;;25.55;52.97
12973;BME280;6551;51.056;9.466;2022-08-16T00:12:35;96853.19;;;25.29;53.33
12973;BME280;6551;51.056;9.466;2022-08-16T00:15:16;96855.84;;;24.96;54.06
12973;BME280;6551;51.056;9.466;2022-08-16T00:17:42;96856.19;;;24.86;54.28
12973;BME280;6551;51.056;9.466;2022-08-16T00:20:10;96863.13;;;24.83;54.26
12973;BME280;6551;51.056;9.466;2022-08-16T00:22:38;96869.72;;;24.74;54.57
12973;BME280;6551;51.056;9.466;2022-08-16T00:25:09;96867.88;;;24.57;54.95
12973;BME280;6551;51.056;9.466;2022-08-16T00:27:36;96868.84;;;24.53;55.31
12973;BME280;6551;51.056;9.466;2022-08-16T00:30:05;96867.09;;;25.15;54.55
12973;BME280;6551;51.056;9.466;2022-08-16T00:32:31;96868.03;;;24.90;54.86
12973;BME280;6551;51.056;9.466;2022-08-16T00:34:57;96865.88;;;25.25;53.95
12973;BME280;6551;51.056;9.466;2022-08-16T00:37:25;96870.38;;;25.41;53.61
12973;BME280;6551;51.056;9.466;2022-08-16T00:39:52;96860.69;;;25.52;53.06
12973;BME280;6551;51.056;9.466;2022-08-16T00:42:18;96859.22;;;25.34;53.25
12973;BME280;6551;51.056;9.466;2022-08-16T00:44:51;96866.09;;;25.40;53.40
12973;BME280;6551;51.056;9.466;2022-08-16T00:47:19;96861.22;;;25.25;53.79
12973;BME280;6551;51.056;9.466;2022-08-16T00:49:45;96864.59;;;25.22;54.06
12973;BME280;6551;51.056;9.466;2022-08-16T00:52:12;96876.03;;;25.16;53.96
12973;BME280;6551;51.056;9.466;2022-08-16T00:54:37;96868.53;;;25.13;54.30
12973;BME280;6551;51.056;9.466;2022-08-16T00:57:03;96863.81;;;25.01;54.73
12973;BME280;6551;51.056;9.466;2022-08-16T00:59:35;96868.06;;;25.11;54.41
12973;BME280;6551;51.056;9.466;2022-08-16T01:02:05;96864.66;;;24.93;54.65
12973;BME280;6551;51.056;9.466;2022-08-16T01:04:31;96864.00;;;24.96;55.05
12973;BME280;6551;51.056;9.466;2022-08-16T01:06:59;96861.34;;;24.87;54.90
12973;BME280;6551;51.056;9.466;2022-08-16T01:09:25;96861.50;;;24.82;55.13
12973;BME280;6551;51.056;9.466;2022-08-16T01:11:51;96863.56;;;24.85;54.85
12973;BME280;6551;51.056;9.466;2022-08-16T01:14:30;96862.16;;;25.09;54.71
12973;BME280;6551;51.056;9.466;2022-08-16T01:16:59;96863.22;;;25.16;54.78
12973;BME280;6551;51.056;9.466;2022-08-16T01:19:35;96871.97;;;25.01;54.96
12973;BME280;6551;51.056;9.466;2022-08-16T01:22:35;96877.19;;;24.85;54.85
12973;BME280;6551;51.056;9.466;2022-08-16T01:25:11;96864.19;;;24.91;55.06
12973;BME280;6551;51.056;9.466;2022-08-16T01:27:47;96873.69;;;24.85;55.23
12973;BME280;6551;51.056;9.466;2022-08-16T01:32:44;96871.69;;;24.94;55.42
12973;BME280;6551;51.056;9.466;2022-08-16T01:35:22;96870.06;;;25.22;55.34
12973;BME280;6551;51.056;9.466;2022-08-16T01:37:54;96868.00;;;25.19;55.56
12973;BME280;6551;51.056;9.466;2022-08-16T01:40:26;96867.41;;;25.14;55.26
12973;BME280;6551;51.056;9.466;2022-08-16T01:42:53;96870.38;;;24.79;56.29
12973;BME280;6551;51.056;9.466;2022-08-16T01:45:19;96871.28;;;24.46;56.73
12973;BME280;6551;51.056;9.466;2022-08-16T01:47:49;96867.31;;;24.43;57.40
12973;BME280;6551;51.056;9.466;2022-08-16T01:50:15;96872.09;;;24.46;57.62
12973;BME280;6551;51.056;9.466;2022-08-16T01:52:42;96865.88;;;24.37;57.52
12973;BME280;6551;51.056;9.466;2022-08-16T01:55:09;96867.22;;;24.22;57.93
12973;BME280;6551;51.056;9.466;2022-08-16T01:57:34;96871.00;;;24.38;57.73
12973;BME280;6551;51.056;9.466;2022-08-16T02:00:04;96867.19;;;24.60;58.13
12973;BME280;6551;51.056;9.466;2022-08-16T02:02:31;96867.19;;;24.60;57.72
12973;BME280;6551;51.056;9.466;2022-08-16T02:04:57;96865.94;;;24.58;57.72
12973;BME280;6551;51.056;9.466;2022-08-16T02:07:24;96868.34;;;24.59;57.88
12973;BME280;6551;51.056;9.466;2022-08-16T02:09:50;96864.66;;;24.55;57.76
12973;BME280;6551;51.056;9.466;2022-08-16T02:12:16;96867.53;;;24.59;57.70
12973;BME280;6551;51.056;9.466;2022-08-16T02:14:42;96872.16;;;24.67;57.71
12973;BME280;6551;51.056;9.466;2022-08-16T02:17:10;96871.63;;;24.35;58.12
12973;BME280;6551;51.056;9.466;2022-08-16T02:19:40;96883.00;;;24.46;57.83
12973;BME280;6551;51.056;9.466;2022-08-16T02:22:11;96870.03;;;24.72;57.56
12973;BME280;6551;51.056;9.466;2022-08-16T02:24:40;96867.19;;;24.60;57.40
12973;BME280;6551;51.056;9.466;2022-08-16T02:27:06;96865.25;;;24.40;57.51
12973;BME280;6551;51.056;9.466;2022-08-16T02:29:31;96867.41;;;24.09;58.30
12973;BME280;6551;51.056;9.466;2022-08-16T02:31:57;96876.72;;;23.91;59.09
12973;BME280;6551;51.056;9.466;2022-08-16T02:34:24;96877.19;;;23.93;59.37
12973;BME280;6551;51.056;9.466;2022-08-16T02:36:50;96874.13;;;24.03;58.88
12973;BME280;6551;51.056;9.466;2022-08-16T02:39:17;96870.81;;;24.43;57.89
12973;BME280;6551;51.056;9.466;2022-08-16T02:41:46;96874.03;;;24.46;57.66
12973;BME280;6551;51.056;9.466;2022-08-16T02:44:13;96875.97;;;24.36;57.36
12973;BME280;6551;51.056;9.466;2022-08-16T02:46:41;96876.03;;;24.19;58.07
12973;BME280;6551;51.056;9.466;2022-08-16T02:49:07;96869.94;;;24.22;57.59
12973;BME280;6551;51.056;9.466;2022-08-16T02:51:34;96877.19;;;24.48;56.74
12973;BME280;6551;51.056;9.466;2022-08-16T02:54:00;96877.44;;;24.63;56.25
12973;BME280;6551;51.056;9.466;2022-08-16T02:56:26;96875.88;;;24.62;55.94
12973;BME280;6551;51.056;9.466;2022-08-16T02:58:54;96870.50;;;24.74;55.49
12973;BME280;6551;51.056;9.466;2022-08-16T03:01:26;96865.97;;;24.87;55.07
12973;BME280;6551;51.056;9.466;2022-08-16T03:03:54;96870.25;;;24.59;55.74
12973;BME280;6551;51.056;9.466;2022-08-16T03:06:21;96866.91;;;24.91;54.92
12973;BME280;6551;51.056;9.466;2022-08-16T03:08:48;96873.13;;;24.62;55.65
12973;BME280;6551;51.056;9.466;2022-08-16T03:11:14;96865.00;;;24.54;55.93
12973;BME280;6551;51.056;9.466;2022-08-16T03:13:44;96856.47;;;24.64;55.08
12973;BME280;6551;51.056;9.466;2022-08-16T03:16:10;96860.88;;;24.77;55.13
12973;BME280;6551;51.056;9.466;2022-08-16T03:18:38;96852.44;;;24.70;55.00
12973;BME280;6551;51.056;9.466;2022-08-16T03:21:04;96854.69;;;24.68;55.23
12973;BME280;6551;51.056;9.466;2022-08-16T03:23:32;96855.53;;;24.60;55.26
12973;BME280;6551;51.056;9.466;2022-08-16T03:25:58;96859.25;;;24.47;54.73
12973;BME280;6551;51.056;9.466;2022-08-16T03:28:23;96865.09;;;24.36;55.33
12973;BME280;6551;51.056;9.466;2022-08-16T03:30:49;96862.03;;;24.38;55.72
12973;BME280;6551;51.056;9.466;2022-08-16T03:33:15;96853.78;;;24.17;56.25
12973;BME280;6551;51.056;9.466;2022-08-16T03:35:41;96845.47;;;24.05;56.88
12973;BME280;6551;51.056;9.466;2022-08-16T03:38:12;96860.25;;;23.96;56.04
12973;BME280;6551;51.056;9.466;2022-08-16T03:40:39;96860.06;;;23.92;57.02
12973;BME280;6551;51.056;9.466;2022-08-16T03:43:10;96859.53;;;24.16;56.81
12973;BME280;6551;51.056;9.466;2022-08-16T03:45:38;96860.53;;;23.94;57.00
12973;BME280;6551;51.056;9.466;2022-08-16T03:48:06;96859.88;;;24.06;56.48
12973;BME280;6551;51.056;9.466;2022-08-16T03:50:32;96863.63;;;23.84;57.18
12973;BME280;6551;51.056;9.466;2022-08-16T03:53:00;96862.31;;;23.99;56.70
12973;BME280;6551;51.056;9.466;2022-08-16T03:55:26;96869.66;;;24.07;57.11
12973;BME280;6551;51.056;9.466;2022-08-16T03:57:52;96868.72;;;23.94;58.05
12973;BME280;6551;51.056;9.466;2022-08-16T04:00:26;96869.25;;;22.54;62.25
12973;BME280;6551;51.056;9.466;2022-08-16T04:02:55;96867.66;;;22.22;64.21
12973;BME280;6551;51.056;9.466;2022-08-16T04:05:22;96878.75;;;21.59;65.57
12973;BME280;6551;51.056;9.466;2022-08-16T04:07:49;96870.38;;;21.47;68.12
12973;BME280;6551;51.056;9.466;2022-08-16T04:10:15;96873.47;;;21.76;65.78
12973;BME280;6551;51.056;9.466;2022-08-16T04:12:44;96876.41;;;21.88;66.96
12973;BME280;6551;51.056;9.466;2022-08-16T04:15:13;96882.22;;;21.51;66.54
12973;BME280;6551;51.056;9.466;2022-08-16T04:17:39;96885.13;;;21.54;67.18
12973;BME280;6551;51.056;9.466;2022-08-16T04:20:07;96894.22;;;21.81;65.87
12973;BME280;6551;51.056;9.466;2022-08-16T04:22:35;96897.88;;;21.98;65.15
12973;BME280;6551;51.056;9.466;2022-08-16T04:25:05;96896.34;;;22.14;63.65
12973;BME280;6551;51.056;9.466;2022-08-16T04:27:31;96893.81;;;22.49;63.15
12973;BME280;6551;51.056;9.466;2022-08-16T04:29:58;96904.31;;;22.81;62.11
12973;BME280;6551;51.056;9.466;2022-08-16T04:32:23;96902.28;;;23.04;60.90
12973;BME280;6551;51.056;9.466;2022-08-16T04:34:49;96905.03;;;23.21;60.62
12973;BME280;6551;51.056;9.466;2022-08-16T04:37:15;96901.25;;;23.56;59.09
12973;BME280;6551;51.056;9.466;2022-08-16T04:39:40;96901.22;;;23.65;58.69
12973;BME280;6551;51.056;9.466;2022-08-16T04:42:06;96904.59;;;23.62;58.70
12973;BME280;6551;51.056;9.466;2022-08-16T04:44:32;96906.31;;;23.83;58.06
12973;BME280;6551;51.056;9.466;2022-08-16T04:46:58;96910.31;;;23.95;57.86
12973;BME280;6551;51.056;9.466;2022-08-16T04:49:24;96913.63;;;24.26;57.87
12973;BME280;6551;51.056;9.466;2022-08-16T04:51:50;96908.13;;;24.43;57.17
12973;BME280;6551;51.056;9.466;2022-08-16T04:54:16;96906.38;;;24.85;55.95
12973;BME280;6551;51.056;9.466;2022-08-16T04:56:42;96909.53;;;25.16;55.16
12973;BME280;6551;51.056;9.466;2022-08-16T04:59:08;96913.31;;;25.53;54.22
12973;BME280;6551;51.056;9.466;2022-08-16T05:01:35;96909.00;;;25.43;54.07
12973;BME280;6551;51.056;9.466;2022-08-16T05:04:02;96909.03;;;25.64;53.45
12973;BME280;6551;51.056;9.466;2022-08-16T05:06:29;96920.63;;;25.82;53.29
12973;BME280;6551;51.056;9.466;2022-08-16T05:08:55;96921.59;;;25.98;52.57
12973;BME280;6551;51.056;9.466;2022-08-16T05:11:21;96922.19;;;26.48;51.79
12973;BME280;6551;51.056;9.466;2022-08-16T05:13:48;96926.84;;;26.48;51.14
12973;BME280;6551;51.056;9.466;2022-08-16T05:16:22;96923.47;;;26.75;50.93
12973;BME280;6551;51.056;9.466;2022-08-16T05:18:50;96923.28;;;26.92;50.52
12973;BME280;6551;51.056;9.466;2022-08-16T05:21:17;96920.41;;;26.77;50.33
12973;BME280;6551;51.056;9.466;2022-08-16T05:23:43;96926.75;;;26.68;50.67
12973;BME280;6551;51.056;9.466;2022-08-16T05:26:09;96923.38;;;26.84;50.26
12973;BME280;6551;51.056;9.466;2022-08-16T05:28:35;96933.94;;;27.21;49.67
12973;BME280;6551;51.056;9.466;2022-08-16T05:31:00;96936.09;;;27.52;49.15
12973;BME280;6551;51.056;9.466;2022-08-16T05:33:26;96936.34;;;27.87;48.86
12973;BME280;6551;51.056;9.466;2022-08-16T05:35:52;96939.38;;;27.98;49.25
12973;BME280;6551;51.056;9.466;2022-08-16T05:38:18;96939.53;;;28.17;48.40
12973;BME280;6551;51.056;9.466;2022-08-16T05:40:45;96932.22;;;28.21;48.72
12973;BME280;6551;51.056;9.466;2022-08-16T05:43:10;96940.47;;;28.36;47.73
12973;BME280;6551;51.056;9.466;2022-08-16T05:45:36;96948.06;;;28.71;47.77
12973;BME280;6551;51.056;9.466;2022-08-16T05:48:02;96944.47;;;29.17;46.41
12973;BME280;6551;51.056;9.466;2022-08-16T05:50:28;96943.22;;;29.30;46.31
12973;BME280;6551;51.056;9.466;2022-08-16T05:52:54;96945.88;;;29.42;46.48
12973;BME280;6551;51.056;9.466;2022-08-16T05:55:19;96941.50;;;29.76;46.19
12973;BME280;6551;51.056;9.466;2022-08-16T05:57:45;96932.84;;;29.93;45.88
12973;BME280;6551;51.056;9.466;2022-08-16T06:00:12;96939.22;;;30.17;45.12
12973;BME280;6551;51.056;9.466;2022-08-16T06:02:40;96938.47;;;30.39;44.90
12973;BME280;6551;51.056;9.466;2022-08-16T06:05:07;96942.88;;;30.43;44.05
12973;BME280;6551;51.056;9.466;2022-08-16T06:07:32;96944.34;;;30.60;44.41
12973;BME280;6551;51.056;9.466;2022-08-16T06:09:59;96944.63;;;30.97;43.30
12973;BME280;6551;51.056;9.466;2022-08-16T06:12:29;96945.66;;;31.11;44.82
12973;BME280;6551;51.056;9.466;2022-08-16T06:14:58;96934.53;;;31.31;43.26
12973;BME280;6551;51.056;9.466;2022-08-16T06:17:27;96943.00;;;31.45;43.26
12973;BME280;6551;51.056;9.466;2022-08-16T06:19:53;96941.91;;;31.49;43.18
12973;BME280;6551;51.056;9.466;2022-08-16T06:22:19;96943.50;;;31.50;43.38
12973;BME280;6551;51.056;9.466;2022-08-16T06:24:45;96945.31;;;31.65;43.04
12973;BME280;6551;51.056;9.466;2022-08-16T06:27:11;96950.00;;;31.95;42.89
12973;BME280;6551;51.056;9.466;2022-08-16T06:29:36;96948.53;;;32.01;42.83
12973;BME280;6551;51.056;9.466;2022-08-16T06:32:03;96945.16;;;32.14;42.61
12973;BME280;6551;51.056;9.466;2022-08-16T06:34:29;96950.97;;;31.79;43.02
12973;BME280;6551;51.056;9.466;2022-08-16T06:36:54;96948.69;;;31.55;43.73
12973;BME280;6551;51.056;9.466;2022-08-16T06:39:21;96946.84;;;31.93;43.44
12973;BME280;6551;51.056;9.466;2022-08-16T06:41:47;96946.31;;;32.13;43.04
12973;BME280;6551;51.056;9.466;2022-08-16T06:44:13;96955.59;;;32.31;42.69
12973;BME280;6551;51.056;9.466;2022-08-16T06:46:38;96961.16;;;32.05;43.08
12973;BME280;6551;51.056;9.466;2022-08-16T06:49:08;96965.38;;;31.96;43.27
12973;BME280;6551;51.056;9.466;2022-08-16T06:51:36;96966.44;;;31.88;43.44
12973;BME280;6551;51.056;9.466;2022-08-16T06:54:04;96967.34;;;31.43;44.13
12973;BME280;6551;51.056;9.466;2022-08-16T06:56:30;96968.22;;;31.47;44.19
12973;BME280;6551;51.056;9.466;2022-08-16T06:58:56;96969.56;;;31.56;44.48
12973;BME280;6551;51.056;9.466;2022-08-16T07:01:22;96969.97;;;31.58;44.33
12973;BME280;6551;51.056;9.466;2022-08-16T07:03:49;96969.03;;;31.47;44.22
12973;BME280;6551;51.056;9.466;2022-08-16T07:06:15;96974.59;;;31.51;44.28
12973;BME280;6551;51.056;9.466;2022-08-16T07:08:43;96971.44;;;31.78;43.94
12973;BME280;6551;51.056;9.466;2022-08-16T07:11:11;96984.81;;;32.39;43.11
12973;BME280;6551;51.056;9.466;2022-08-16T07:13:37;96983.19;;;32.72;42.52
12973;BME280;6551;51.056;9.466;2022-08-16T07:16:05;96982.97;;;32.17;43.59
12973;BME280;6551;51.056;9.466;2022-08-16T07:18:32;96989.91;;;32.37;43.02
12973;BME280;6551;51.056;9.466;2022-08-16T07:20:58;96987.28;;;32.15;43.78
12973;BME280;6551;51.056;9.466;2022-08-16T07:23:25;96984.31;;;32.30;43.01
12973;BME280;6551;51.056;9.466;2022-08-16T07:25:52;96981.25;;;32.06;43.78
12973;BME280;6551;51.056;9.466;2022-08-16T07:28:19;96986.84;;;32.13;43.78
12973;BME280;6551;51.056;9.466;2022-08-16T07:30:47;96992.94;;;31.99;43.62
12973;BME280;6551;51.056;9.466;2022-08-16T07:33:13;96989.03;;;32.00;43.90
12973;BME280;6551;51.056;9.466;2022-08-16T07:35:40;96983.97;;;32.02;43.27
12973;BME280;6551;51.056;9.466;2022-08-16T07:38:06;96977.97;;;31.67;43.92
12973;BME280;6551;51.056;9.466;2022-08-16T07:40:34;96987.44;;;31.99;44.06
12973;BME280;6551;51.056;9.466;2022-08-16T07:43:00;96976.94;;;31.78;44.26
12973;BME280;6551;51.056;9.466;2022-08-16T07:45:26;96983.63;;;32.07;43.68
12973;BME280;6551;51.056;9.466;2022-08-16T07:47:52;96974.66;;;32.14;43.56
12973;BME280;6551;51.056;9.466;2022-08-16T07:50:18;96979.09;;;32.22;43.34
12973;BME280;6551;51.056;9.466;2022-08-16T07:52:44;96976.25;;;32.52;43.07
12973;BME280;6551;51.056;9.466;2022-08-16T07:55:14;96980.97;;;32.84;42.69
12973;BME280;6551;51.056;9.466;2022-08-16T07:57:41;96975.97;;;33.01;42.13
12973;BME280;6551;51.056;9.466;2022-08-16T08:00:09;96983.25;;;33.19;41.75
12973;BME280;6551;51.056;9.466;2022-08-16T08:02:36;96989.19;;;33.76;41.26
12973;BME280;6551;51.056;9.466;2022-08-16T08:05:03;96989.22;;;33.83;41.01
12973;BME280;6551;51.056;9.466;2022-08-16T08:07:29;96994.38;;;33.84;40.80
12973;BME280;6551;51.056;9.466;2022-08-16T08:09:56;96987.34;;;34.04;40.16
12973;BME280;6551;51.056;9.466;2022-08-16T08:12:23;96992.63;;;34.24;40.41
12973;BME280;6551;51.056;9.466;2022-08-16T08:14:51;96992.25;;;34.29;40.22
12973;BME280;6551;51.056;9.466;2022-08-16T08:17:17;96982.28;;;34.10;40.17
12973;BME280;6551;51.056;9.466;2022-08-16T08:19:43;96988.72;;;34.42;39.77
12973;BME280;6551;51.056;9.466;2022-08-16T08:22:10;96988.38;;;34.51;39.27
12973;BME280;6551;51.056;9.466;2022-08-16T08:24:36;96986.00;;;33.70;39.93
12973;BME280;6551;51.056;9.466;2022-08-16T08:27:04;96986.69;;;34.18;39.67
12973;BME280;6551;51.056;9.466;2022-08-16T08:29:31;96984.69;;;34.19;40.03
12973;BME280;6551;51.056;9.466;2022-08-16T08:31:57;96981.78;;;35.26;38.43
12973;BME280;6551;51.056;9.466;2022-08-16T08:34:23;96976.63;;;35.70;37.61
12973;BME280;6551;51.056;9.466;2022-08-16T08:36:49;96978.09;;;36.10;36.89
12973;BME280;6551;51.056;9.466;2022-08-16T08:39:16;96996.31;;;35.94;36.99
12973;BME280;6551;51.056;9.466;2022-08-16T08:41:43;96992.06;;;35.57;38.04
12973;BME280;6551;51.056;9.466;2022-08-16T08:44:12;96994.03;;;35.60;37.85
12973;BME280;6551;51.056;9.466;2022-08-16T08:46:39;96990.09;;;35.37;38.20
12973;BME280;6551;51.056;9.466;2022-08-16T08:49:05;96992.84;;;35.22;38.40
12973;BME280;6551;51.056;9.466;2022-08-16T08:51:34;96990.09;;;35.22;37.63
12973;BME280;6551;51.056;9.466;2022-08-16T08:54:00;96993.25;;;35.10;37.55
12973;BME280;6551;51.056;9.466;2022-08-16T08:56:26;96996.34;;;34.88;38.02
12973;BME280;6551;51.056;9.466;2022-08-16T08:58:54;97002.69;;;34.88;38.22
12973;BME280;6551;51.056;9.466;2022-08-16T09:01:26;97000.38;;;35.29;37.53
12973;BME280;6551;51.056;9.466;2022-08-16T09:03:53;97000.38;;;35.29;37.73
12973;BME280;6551;51.056;9.466;2022-08-16T09:06:19;97004.72;;;35.41;37.56
12973;BME280;6551;51.056;9.466;2022-08-16T09:08:44;97006.63;;;36.00;36.91
12973;BME280;6551;51.056;9.466;2022-08-16T09:11:10;97008.59;;;36.00;37.11
12973;BME280;6551;51.056;9.466;2022-08-16T09:13:36;97010.13;;;36.29;36.43
12973;BME280;6551;51.056;9.466;2022-08-16T09:16:02;97007.28;;;36.43;36.62
12973;BME280;6551;51.056;9.466;2022-08-16T09:18:27;97009.47;;;36.80;36.16
12973;BME280;6551;51.056;9.466;2022-08-16T09:20:54;97015.44;;;36.78;36.56
12973;BME280;6551;51.056;9.466;2022-08-16T09:23:21;97017.22;;;36.37;36.80
12973;BME280;6551;51.056;9.466;2022-08-16T09:25:47;97019.19;;;36.29;36.73
12973;BME280;6551;51.056;9.466;2022-08-16T09:28:14;97021.59;;;36.24;37.25
12973;BME280;6551;51.056;9.466;2022-08-16T09:30:40;97014.81;;;36.39;36.34
12973;BME280;6551;51.056;9.466;2022-08-16T09:33:06;97026.00;;;36.18;36.15
12973;BME280;6551;51.056;9.466;2022-08-16T09:35:34;97017.72;;;35.93;36.91
12973;BME280;6551;51.056;9.466;2022-08-16T09:38:00;97018.03;;;36.30;36.78
12973;BME280;6551;51.056;9.466;2022-08-16T09:40:26;97010.63;;;36.82;35.74
12973;BME280;6551;51.056;9.466;2022-08-16T09:42:52;97020.47;;;36.94;35.41
12973;BME280;6551;51.056;9.466;2022-08-16T09:45:20;97008.19;;;36.99;34.88
12973;BME280;6551;51.056;9.466;2022-08-16T09:47:46;97007.47;;;34.98;36.83
12973;BME280;6551;51.056;9.466;2022-08-16T09:50:13;97009.00;;;34.78;37.17
12973;BME280;6551;51.056;9.466;2022-08-16T09:52:39;97017.00;;;35.29;37.12
12973;BME280;6551;51.056;9.466;2022-08-16T09:55:08;97018.16;;;35.77;36.39
12973;BME280;6551;51.056;9.466;2022-08-16T09:57:39;97011.78;;;34.82;37.55
12973;BME280;6551;51.056;9.466;2022-08-16T10:00:08;97012.25;;;35.58;36.43
12973;BME280;6551;51.056;9.466;2022-08-16T10:02:35;97018.34;;;36.47;35.83
12973;BME280;6551;51.056;9.466;2022-08-16T10:05:03;97011.88;;;36.74;35.71
12973;BME280;6551;51.056;9.466;2022-08-16T10:07:30;97014.06;;;36.28;35.22
12973;BME280;6551;51.056;9.466;2022-08-16T10:09:56;96999.16;;;36.77;34.47
12973;BME280;6551;51.056;9.466;2022-08-16T10:12:27;97013.97;;;36.49;34.93
12973;BME280;6551;51.056;9.466;2022-08-16T10:15:19;97003.84;;;34.66;36.49
12973;BME280;6551;51.056;9.466;2022-08-16T10:17:50;97009.44;;;35.05;36.82
12973;BME280;6551;51.056;9.466;2022-08-16T10:20:16;97013.41;;;35.04;37.15
12973;BME280;6551;51.056;9.466;2022-08-16T10:22:42;97011.84;;;35.35;36.81
12973;BME280;6551;51.056;9.466;2022-08-16T10:25:08;97013.44;;;35.60;35.88
12973;BME280;6551;51.056;9.466;2022-08-16T10:27:34;97020.09;;;36.05;35.76
12973;BME280;6551;51.056;9.466;2022-08-16T10:30:05;97011.25;;;36.35;34.78
12973;BME280;6551;51.056;9.466;2022-08-16T10:32:32;97013.41;;;36.82;33.97
12973;BME280;6551;51.056;9.466;2022-08-16T10:34:59;97006.63;;;35.97;34.03
12973;BME280;6551;51.056;9.466;2022-08-16T10:37:25;97005.81;;;35.96;35.33
12973;BME280;6551;51.056;9.466;2022-08-16T10:39:51;97012.56;;;36.02;34.89
12973;BME280;6551;51.056;9.466;2022-08-16T10:42:16;97007.84;;;35.85;34.92
12973;BME280;6551;51.056;9.466;2022-08-16T10:44:43;97018.75;;;36.45;34.94
12973;BME280;6551;51.056;9.466;2022-08-16T10:47:09;97010.97;;;36.95;33.05
12973;BME280;6551;51.056;9.466;2022-08-16T10:49:35;97003.41;;;36.19;33.53
12973;BME280;6551;51.056;9.466;2022-08-16T10:52:02;97007.50;;;35.37;35.42
12973;BME280;6551;51.056;9.466;2022-08-16T10:54:29;97009.47;;;35.37;35.01
12973;BME280;6551;51.056;9.466;2022-08-16T10:57:00;97016.53;;;35.91;34.99
12973;BME280;6551;51.056;9.466;2022-08-16T10:59:28;97009.06;;;35.73;33.66
12973;BME280;6551;51.056;9.466;2022-08-16T11:01:56;97003.41;;;36.16;32.82
12973;BME280;6551;51.056;9.466;2022-08-16T11:04:22;97008.63;;;35.93;33.91
12973;BME280;6551;51.056;9.466;2022-08-16T11:06:48;97006.66;;;35.86;34.57
12973;BME280;6551;51.056;9.466;2022-08-16T11:09:13;97002.75;;;35.62;34.31
12973;BME280;6551;51.056;9.466;2022-08-16T11:11:39;97015.41;;;35.42;35.04
12973;BME280;6551;51.056;9.466;2022-08-16T11:14:05;97005.91;;;35.54;35.35
12973;BME280;6551;51.056;9.466;2022-08-16T11:16:31;97007.09;;;35.35;35.53
12973;BME280;6551;51.056;9.466;2022-08-16T11:18:57;97013.38;;;34.93;35.61
12973;BME280;6551;51.056;9.466;2022-08-16T11:21:23;97014.63;;;35.28;34.55
12973;BME280;6551;51.056;9.466;2022-08-16T11:23:53;97018.56;;;35.48;34.38
12973;BME280;6551;51.056;9.466;2022-08-16T11:26:19;97015.44;;;35.56;33.76
12973;BME280;6551;51.056;9.466;2022-08-16T11:28:45;97019.34;;;35.27;33.29
12973;BME280;6551;51.056;9.466;2022-08-16T11:31:11;97025.56;;;34.57;34.50
12973;BME280;6551;51.056;9.466;2022-08-16T11:33:36;97018.25;;;34.14;35.56
12973;BME280;6551;51.056;9.466;2022-08-16T11:36:03;97023.22;;;33.87;37.14
12973;BME280;6551;51.056;9.466;2022-08-16T11:38:29;97018.69;;;33.61;37.44
12973;BME280;6551;51.056;9.466;2022-08-16T11:40:58;97021.75;;;34.07;37.71
12973;BME280;6551;51.056;9.466;2022-08-16T11:43:31;97016.47;;;34.63;36.63
12973;BME280;6551;51.056;9.466;2022-08-16T11:46:01;97015.75;;;34.84;36.48
12973;BME280;6551;51.056;9.466;2022-08-16T11:48:29;97016.56;;;35.52;34.97
12973;BME280;6551;51.056;9.466;2022-08-16T11:50:58;97019.38;;;35.34;35.49
12973;BME280;6551;51.056;9.466;2022-08-16T11:53:24;97015.81;;;35.58;34.87
12973;BME280;6551;51.056;9.466;2022-08-16T11:55:51;97017.72;;;36.00;33.91
12973;BME280;6551;51.056;9.466;2022-08-16T11:58:18;97018.06;;;36.23;33.84
12973;BME280;6551;51.056;9.466;2022-08-16T12:00:45;97017.19;;;36.51;33.76
12973;BME280;6551;51.056;9.466;2022-08-16T12:03:13;97014.50;;;36.19;33.25
12973;BME280;6551;51.056;9.466;2022-08-16T12:05:42;97019.69;;;36.10;33.56
12973;BME280;6551;51.056;9.466;2022-08-16T12:08:09;97007.44;;;35.87;34.35
12973;BME280;6551;51.056;9.466;2022-08-16T12:10:38;97016.16;;;34.97;34.39
12973;BME280;6551;51.056;9.466;2022-08-16T12:13:05;97017.28;;;34.57;35.91
12973;BME280;6551;51.056;9.466;2022-08-16T12:15:32;97015.72;;;34.74;35.89
12973;BME280;6551;51.056;9.466;2022-08-16T12:17:58;97015.16;;;34.33;35.61
12973;BME280;6551;51.056;9.466;2022-08-16T12:20:32;97015.19;;;34.36;36.46
12973;BME280;6551;51.056;9.466;2022-08-16T12:22:58;97011.78;;;34.78;36.52
12973;BME280;6551;51.056;9.466;2022-08-16T12:25:27;97016.44;;;34.56;36.15
12973;BME280;6551;51.056;9.466;2022-08-16T12:27:54;97014.56;;;34.92;36.21
12973;BME280;6551;51.056;9.466;2022-08-16T12:30:30;97016.53;;;34.99;36.16
12973;BME280;6551;51.056;9.466;2022-08-16T12:32:59;97018.94;;;35.04;35.93
12973;BME280;6551;51.056;9.466;2022-08-16T12:35:34;97008.69;;;35.11;35.74
12973;BME280;6551;51.056;9.466;2022-08-16T12:38:01;97011.78;;;34.85;35.67
12973;BME280;6551;51.056;9.466;2022-08-16T12:40:33;97008.25;;;35.06;35.34
12973;BME280;6551;51.056;9.466;2022-08-16T12:43:01;97004.31;;;35.60;34.01
12973;BME280;6551;51.056;9.466;2022-08-16T12:45:33;97007.91;;;35.29;34.26
12973;BME280;6551;51.056;9.466;2022-08-16T12:48:00;97001.50;;;34.86;34.96
12973;BME280;6551;51.056;9.466;2022-08-16T12:50:46;97008.69;;;35.15;35.81
12973;BME280;6551;51.056;9.466;2022-08-16T12:53:12;97007.91;;;35.43;34.69
12973;BME280;6551;51.056;9.466;2022-08-16T12:55:39;97004.72;;;35.58;34.58
12973;BME280;6551;51.056;9.466;2022-08-16T12:58:06;97002.38;;;35.57;34.38
12973;BME280;6551;51.056;9.466;2022-08-16T13:00:32;97012.25;;;35.40;34.27
12973;BME280;6551;51.056;9.466;2022-08-16T13:03:00;97007.88;;;35.74;34.60
12973;BME280;6551;51.056;9.466;2022-08-16T13:05:27;97007.09;;;35.67;33.92
12973;BME280;6551;51.056;9.466;2022-08-16T13:07:53;97003.94;;;35.19;33.78
12973;BME280;6551;51.056;9.466;2022-08-16T13:10:22;97005.91;;;35.08;33.95
12973;BME280;6551;51.056;9.466;2022-08-16T13:12:51;97001.88;;;34.81;33.96